Time;durP1;ratioP1;P1;durP2;ratioP2;P2;SDS_P1;SDS_P2;PMS_P1;PMS_P2;Temp;Humidity;BMP_temperature;BMP_pressure;BME280_temperature;BME280_humidity;BME280_pressure;Samples;Min_cycle;Max_cycle;Signal;HPM_P1;HPM_P2
2022/05/19 00:02:10;;;;;;;;;;;;;;;9.03;80.64;149925.23;1754087;81;20137;-69
2022/05/19 00:04:37;;;;;;;;;;;;;;;9.03;80.63;149926.50;1757093;81;20166;-69
2022/05/19 00:07:04;;;;;;;;;;;;;;;9.02;80.67;149923.91;1758715;81;20201;-69
2022/05/19 00:09:32;;;;;;;;;;;;;;;9.02;80.74;149922.64;1758638;81;20197;-68
2022/05/19 00:12:01;;;;;;;;;;;;;;;9.01;80.73;149920.05;1758374;81;21128;-68
2022/05/19 00:14:27;;;;;;;;;;;;;;;8.99;80.85;149914.87;1759062;81;20141;-68
2022/05/19 00:16:57;;;;;;;;;;;;;;;8.98;80.85;149912.28;1757967;81;20157;-69
2022/05/19 00:19:22;;;;;;;;;;;;;;;8.94;81.01;149901.87;1758686;81;20198;-69
2022/05/19 00:21:51;;;;;;;;;;;;;;;8.92;81.15;149898.00;1703816;81;20210;-69
2022/05/19 00:24:20;;;;;;;;;;;;;;;8.92;81.30;149898.00;1700990;84;21927;-68
2022/05/19 00:26:48;;;;;;;;;;;;;;;8.92;81.40;149896.69;1700724;84;20175;-72
2022/05/19 00:29:14;;;;;;;;;;;;;;;8.91;81.43;149894.09;1700321;84;20201;-72
2022/05/19 00:31:41;;;;;;;;;;;;;;;8.90;81.44;149892.83;1700502;84;20218;-71
2022/05/19 00:34:08;;;;;;;;;;;;;;;8.91;81.43;149894.09;1711471;81;21144;-72
2022/05/19 00:36:36;;;;;;;;;;;;;;;8.92;81.49;149896.69;1728226;83;22045;-71
2022/05/19 00:39:04;;;;;;;;;;;;;;;8.92;81.53;149896.69;1728698;83;20184;-73
2022/05/19 00:41:32;;;;;;;;;;;;;;;8.93;81.59;149899.28;1728438;83;20215;-70
2022/05/19 00:44:00;;;;;;;;;;;;;;;8.94;81.64;149901.87;1727902;83;20378;-73
2022/05/19 00:46:50;;;;;;;;;;;;;;;8.97;81.76;149909.69;1728636;83;20501;-69
2022/05/19 00:49:23;;;;;;;;;;;;;;;8.97;81.87;149909.69;1728449;83;21222;-68
2022/05/19 00:52:06;;;;;;;;;;;;;;;8.96;81.96;149908.38;1729973;81;20169;-68
2022/05/19 00:54:34;;;;;;;;;;;;;;;8.99;82.03;149914.87;1696462;83;20203;-72
2022/05/19 00:57:10;;;;;;;;;;;;;;;9.01;82.08;149920.05;1727956;83;20207;-70
2022/05/19 00:59:43;;;;;;;;;;;;;;;9.04;81.98;149927.81;1728637;83;20219;-68
2022/05/19 01:02:10;;;;;;;;;;;;;;;9.08;81.93;149938.19;1727342;83;21206;-72
2022/05/19 01:04:47;;;;;;;;;;;;;;;9.11;81.84;149944.69;1742446;81;20720;-72
2022/05/19 01:07:17;;;;;;;;;;;;;;;9.14;81.82;149953.72;1759146;81;20759;-72
2022/05/19 01:09:44;;;;;;;;;;;;;;;9.16;81.89;149958.91;1758421;81;20636;-71
2022/05/19 01:12:11;;;;;;;;;;;;;;;9.17;81.80;149960.22;1758797;81;20200;-72
2022/05/19 01:14:39;;;;;;;;;;;;;;;9.17;81.83;149961.53;1759501;81;21324;-71
2022/05/19 01:17:06;;;;;;;;;;;;;;;9.17;81.88;149960.22;1759617;81;20249;-72
2022/05/19 01:19:41;;;;;;;;;;;;;;;9.15;81.94;149956.31;1759290;81;20205;-72
2022/05/19 01:22:18;;;;;;;;;;;;;;;9.15;82.03;149955.03;1760617;81;20719;-70
2022/05/19 01:25:00;;;;;;;;;;;;;;;9.13;82.08;149951.12;1706423;81;20138;-72
2022/05/19 01:27:27;;;;;;;;;;;;;;;9.10;82.20;149943.36;1758562;81;21122;-71
2022/05/19 01:29:55;;;;;;;;;;;;;;;9.08;82.32;149938.19;1758765;80;20170;-72
2022/05/19 01:32:24;;;;;;;;;;;;;;;9.05;82.43;149929.09;1758766;80;20209;-68
2022/05/19 01:34:51;;;;;;;;;;;;;;;9.02;82.56;149922.64;1759060;81;20154;-68
2022/05/19 01:37:19;;;;;;;;;;;;;;;8.98;82.70;149913.55;1758760;81;20541;-72
2022/05/19 01:39:51;;;;;;;;;;;;;;;8.95;82.87;149905.78;1757270;81;20860;-68
2022/05/19 01:42:49;;;;;;;;;;;;;;;8.92;82.99;149896.69;1760859;81;20216;-67
2022/05/19 01:45:19;;;;;;;;;;;;;;;8.88;83.13;149888.92;1761198;81;20173;-71
2022/05/19 01:47:53;;;;;;;;;;;;;;;8.83;83.37;149875.97;1761628;81;20376;-73
2022/05/19 01:50:29;;;;;;;;;;;;;;;8.82;83.54;149873.38;1761032;81;20213;-73
2022/05/19 01:53:00;;;;;;;;;;;;;;;8.79;83.72;149864.30;1761570;81;21125;-68
2022/05/19 01:55:48;;;;;;;;;;;;;;;8.74;83.93;149852.66;1761284;81;20538;-69
2022/05/19 01:58:18;;;;;;;;;;;;;;;8.72;84.09;149847.44;1761229;81;20205;-71
2022/05/19 02:00:45;;;;;;;;;;;;;;;8.70;84.32;149842.25;1760068;81;20493;-72
2022/05/19 02:03:18;;;;;;;;;;;;;;;8.68;84.54;149837.08;1759322;81;20221;-72
2022/05/19 02:06:07;;;;;;;;;;;;;;;8.67;84.65;149834.48;1752828;81;21051;-72
2022/05/19 02:08:56;;;;;;;;;;;;;;;8.66;84.85;149833.22;1750947;81;20466;-72
2022/05/19 02:11:36;;;;;;;;;;;;;;;8.64;85.03;149826.72;1750255;81;20435;-71
2022/05/19 02:14:05;;;;;;;;;;;;;;;8.62;85.30;149821.55;1743682;82;20190;-72
2022/05/19 02:16:33;;;;;;;;;;;;;;;8.62;85.44;149821.55;1751914;81;20201;-72
2022/05/19 02:19:02;;;;;;;;;;;;;;;8.59;85.59;149816.36;1753053;81;20427;-68
2022/05/19 02:21:29;;;;;;;;;;;;;;;8.59;85.70;149815.05;1729285;81;20229;-69
2022/05/19 02:23:57;;;;;;;;;;;;;;;8.57;85.82;149811.19;1723289;83;20180;-69
2022/05/19 02:26:23;;;;;;;;;;;;;;;8.55;85.97;149806.00;1722937;83;20176;-71
2022/05/19 02:28:53;;;;;;;;;;;;;;;8.55;86.10;149806.00;1722649;83;20184;-72
2022/05/19 02:31:20;;;;;;;;;;;;;;;8.53;86.22;149800.83;1723202;83;21913;-69
2022/05/19 02:33:47;;;;;;;;;;;;;;;8.51;86.41;149795.66;1741918;81;20283;-73
2022/05/19 02:36:14;;;;;;;;;;;;;;;8.53;86.55;149800.83;1753200;81;20182;-68
2022/05/19 02:38:43;;;;;;;;;;;;;;;8.53;86.65;149800.83;1753649;81;20187;-72
2022/05/19 02:41:10;;;;;;;;;;;;;;;8.52;86.72;149798.23;1753437;81;20174;-73
2022/05/19 02:43:37;;;;;;;;;;;;;;;8.52;86.87;149798.23;1753052;81;21219;-71
2022/05/19 02:46:04;;;;;;;;;;;;;;;8.52;86.95;149798.23;1752357;81;20205;-72
2022/05/19 02:48:32;;;;;;;;;;;;;;;8.52;87.00;149796.92;1752778;81;20189;-71
2022/05/19 02:51:00;;;;;;;;;;;;;;;8.52;87.03;149798.23;1753405;81;20572;-68
2022/05/19 02:53:26;;;;;;;;;;;;;;;8.53;87.08;149799.50;1753950;81;20178;-72
2022/05/19 02:55:55;;;;;;;;;;;;;;;8.55;87.07;149804.69;1753105;81;21288;-71
2022/05/19 02:58:22;;;;;;;;;;;;;;;8.56;87.02;149808.59;1752905;81;20197;-73
2022/05/19 03:00:49;;;;;;;;;;;;;;;8.57;86.97;149811.19;1753689;81;20155;-70
2022/05/19 03:03:16;;;;;;;;;;;;;;;8.57;86.91;149811.19;1753641;81;20597;-73
2022/05/19 03:05:43;;;;;;;;;;;;;;;8.57;86.93;149811.19;1753038;81;20436;-72
2022/05/19 03:08:12;;;;;;;;;;;;;;;8.57;86.98;149811.19;1752870;81;20633;-71
2022/05/19 03:10:41;;;;;;;;;;;;;;;8.57;86.97;149809.86;1754199;80;20145;-72
2022/05/19 03:13:09;;;;;;;;;;;;;;;8.60;87.00;149818.95;1753856;81;20193;-68
2022/05/19 03:15:38;;;;;;;;;;;;;;;8.60;86.97;149817.63;1753741;81;20178;-72
2022/05/19 03:18:05;;;;;;;;;;;;;;;8.60;86.97;149818.95;1753426;81;20177;-72
2022/05/19 03:20:32;;;;;;;;;;;;;;;8.64;86.96;149826.72;1753000;81;21300;-72
2022/05/19 03:22:59;;;;;;;;;;;;;;;8.68;86.85;149838.41;1753089;81;20206;-69
2022/05/19 03:25:26;;;;;;;;;;;;;;;8.73;86.75;149851.34;1753091;81;20192;-68
2022/05/19 03:27:54;;;;;;;;;;;;;;;8.82;86.62;149873.38;1753028;81;20163;-69
2022/05/19 03:30:21;;;;;;;;;;;;;;;8.92;86.30;149896.69;1752701;81;20222;-68
2022/05/19 03:32:48;;;;;;;;;;;;;;;9.00;85.74;149917.47;1753148;81;21136;-69
2022/05/19 03:35:15;;;;;;;;;;;;;;;9.06;85.44;149933.00;1752197;80;20868;-72
2022/05/19 03:37:43;;;;;;;;;;;;;;;9.15;85.03;149956.31;1752658;81;20457;-72
2022/05/19 03:40:11;;;;;;;;;;;;;;;9.23;84.59;149974.50;1765134;81;20884;-72
2022/05/19 03:42:39;;;;;;;;;;;;;;;9.31;84.23;149995.22;1751127;82;20198;-71
2022/05/19 03:45:07;;;;;;;;;;;;;;;9.40;83.78;150017.27;1751030;82;21927;-73
2022/05/19 03:47:34;;;;;;;;;;;;;;;9.51;83.31;150044.48;1751171;82;20620;-72
2022/05/19 03:50:00;;;;;;;;;;;;;;;9.62;83.14;150073.05;1751096;82;20347;-72
2022/05/19 03:52:27;;;;;;;;;;;;;;;9.74;82.49;150102.88;1751105;82;20206;-72
2022/05/19 03:54:55;;;;;;;;;;;;;;;9.86;82.17;150132.70;1751472;82;20177;-72
2022/05/19 03:57:23;;;;;;;;;;;;;;;9.96;81.29;150157.34;1750971;81;21217;-72
2022/05/19 03:59:50;;;;;;;;;;;;;;;10.04;81.03;150179.34;1753616;81;20154;-72
2022/05/19 04:02:16;;;;;;;;;;;;;;;10.14;80.45;150202.73;1753714;81;20170;-71
2022/05/19 04:04:44;;;;;;;;;;;;;;;10.21;79.84;150220.88;1753478;81;20177;-71
2022/05/19 04:07:12;;;;;;;;;;;;;;;10.28;79.52;150237.75;1752992;81;20184;-70
2022/05/19 04:09:39;;;;;;;;;;;;;;;10.38;78.95;150262.41;1754229;81;21256;-69
2022/05/19 04:12:07;;;;;;;;;;;;;;;10.50;78.54;150293.61;1753896;81;20234;-70
2022/05/19 04:14:34;;;;;;;;;;;;;;;10.63;78.26;150326.05;1754806;81;20466;-70
2022/05/19 04:17:01;;;;;;;;;;;;;;;10.79;77.69;150366.28;1754049;81;20392;-69
2022/05/19 04:19:28;;;;;;;;;;;;;;;10.85;76.72;150381.84;1753489;81;20222;-69
2022/05/19 04:21:56;;;;;;;;;;;;;;;10.93;76.50;150400.00;1752304;81;21233;-70
2022/05/19 04:24:25;;;;;;;;;;;;;;;11.07;75.84;150435.08;1752867;81;20194;-70
2022/05/19 04:26:51;;;;;;;;;;;;;;;11.17;75.37;150461.02;1752536;81;20201;-69
2022/05/19 04:29:18;;;;;;;;;;;;;;;11.25;74.63;150480.50;1752919;81;20173;-68
2022/05/19 04:31:45;;;;;;;;;;;;;;;11.30;74.21;150493.47;1753328;81;20154;-69
2022/05/19 04:34:12;;;;;;;;;;;;;;;11.32;73.99;150499.98;1751710;82;20937;-69
2022/05/19 04:36:39;;;;;;;;;;;;;;;11.46;73.93;150533.72;1751770;82;20195;-69
2022/05/19 04:39:06;;;;;;;;;;;;;;;11.62;73.51;150574.02;1753133;81;20173;-69
2022/05/19 04:41:33;;;;;;;;;;;;;;;11.78;72.58;150614.25;1770331;80;20623;-69
2022/05/19 04:44:02;;;;;;;;;;;;;;;11.89;72.26;150641.53;1768033;80;20287;-70
2022/05/19 04:46:28;;;;;;;;;;;;;;;11.98;71.76;150664.89;1767534;80;21023;-69
2022/05/19 04:48:55;;;;;;;;;;;;;;;12.11;71.54;150696.14;1769716;79;20172;-68
2022/05/19 04:51:22;;;;;;;;;;;;;;;12.23;70.77;150727.30;1773195;81;20172;-69
2022/05/19 04:53:49;;;;;;;;;;;;;;;12.32;70.26;150750.72;1773491;81;20156;-70
2022/05/19 04:56:16;;;;;;;;;;;;;;;12.42;69.77;150775.41;1773252;81;20204;-70
2022/05/19 04:58:44;;;;;;;;;;;;;;;12.50;69.32;150794.91;1773154;80;21223;-69
2022/05/19 05:01:13;;;;;;;;;;;;;;;12.54;69.06;150805.28;1773219;80;20571;-68
2022/05/19 05:03:39;;;;;;;;;;;;;;;12.63;68.86;150826.06;1773307;80;20184;-69
2022/05/19 05:06:06;;;;;;;;;;;;;;;12.71;68.30;150846.84;1773292;80;20220;-70
2022/05/19 05:08:34;;;;;;;;;;;;;;;12.72;67.47;150850.77;1773288;80;20291;-69
2022/05/19 05:11:02;;;;;;;;;;;;;;;12.67;67.63;150836.45;1773379;81;21126;-69
2022/05/19 05:13:29;;;;;;;;;;;;;;;12.68;67.77;150840.37;1773463;81;20192;-69
2022/05/19 05:15:58;;;;;;;;;;;;;;;12.72;67.89;150849.48;1773519;80;20207;-69
2022/05/19 05:18:25;;;;;;;;;;;;;;;12.79;67.44;150867.66;1773310;81;20168;-70
2022/05/19 05:20:52;;;;;;;;;;;;;;;12.83;67.25;150878.06;1774222;80;20196;-69
2022/05/19 05:23:19;;;;;;;;;;;;;;;12.92;67.15;150898.83;1774020;80;21120;-70
2022/05/19 05:25:46;;;;;;;;;;;;;;;13.02;66.68;150924.86;1773152;80;20200;-68
2022/05/19 05:28:13;;;;;;;;;;;;;;;13.13;66.50;150953.44;1773266;81;20176;-69
2022/05/19 05:30:39;;;;;;;;;;;;;;;13.27;66.16;150987.25;1773123;80;20175;-72
2022/05/19 05:33:09;;;;;;;;;;;;;;;13.41;65.68;151023.69;1772950;81;20127;-71
2022/05/19 05:35:35;;;;;;;;;;;;;;;13.56;64.95;151061.44;1772419;80;21088;-70
2022/05/19 05:38:04;;;;;;;;;;;;;;;13.62;63.71;151075.75;1770992;80;20160;-72
2022/05/19 05:40:31;;;;;;;;;;;;;;;13.66;64.15;151084.81;1751312;80;20333;-69
2022/05/19 05:43:06;;;;;;;;;;;;;;;13.81;63.60;151123.84;1728045;83;20147;-72
2022/05/19 05:45:33;;;;;;;;;;;;;;;13.89;62.79;151144.64;1727682;83;20234;-72
2022/05/19 05:48:00;;;;;;;;;;;;;;;13.96;62.61;151161.56;1724777;83;21216;-70
2022/05/19 05:50:27;;;;;;;;;;;;;;;14.04;62.37;151182.41;1724402;83;20508;-72
2022/05/19 05:52:54;;;;;;;;;;;;;;;14.15;61.72;151209.73;1724940;83;20485;-72
2022/05/19 05:55:21;;;;;;;;;;;;;;;14.22;61.52;151226.59;1725053;83;20221;-70
2022/05/19 05:57:49;;;;;;;;;;;;;;;14.40;61.56;151270.84;1744420;81;20637;-72
2022/05/19 06:00:16;;;;;;;;;;;;;;;14.57;60.49;151315.09;1755039;81;21099;-72
2022/05/19 06:02:43;;;;;;;;;;;;;;;14.64;58.89;151330.70;1755291;81;20233;-72
2022/05/19 06:05:10;;;;;;;;;;;;;;;14.58;58.49;151317.70;1754924;81;20418;-72
2022/05/19 06:07:39;;;;;;;;;;;;;;;14.53;58.41;151304.70;1754955;81;20177;-70
2022/05/19 06:10:07;;;;;;;;;;;;;;;14.57;58.20;151313.78;1755180;81;20181;-71
2022/05/19 06:12:34;;;;;;;;;;;;;;;14.65;58.29;151334.63;1755191;81;21198;-71
2022/05/19 06:15:01;;;;;;;;;;;;;;;14.75;57.73;151359.41;1755675;81;20438;-71
2022/05/19 06:17:28;;;;;;;;;;;;;;;14.79;57.60;151369.81;1810202;78;20133;-71
2022/05/19 06:19:55;;;;;;;;;;;;;;;14.83;57.46;151378.94;1801726;79;20241;-70
2022/05/19 06:22:24;;;;;;;;;;;;;;;14.95;57.16;151408.88;1752223;81;20234;-72
2022/05/19 06:24:51;;;;;;;;;;;;;;;15.03;56.06;151431.02;1752498;81;21227;-70
2022/05/19 06:27:18;;;;;;;;;;;;;;;15.10;55.81;151447.91;1751860;81;20190;-74
2022/05/19 06:29:45;;;;;;;;;;;;;;;15.14;55.80;151458.34;1752478;81;20547;-69
2022/05/19 06:32:13;;;;;;;;;;;;;;;15.16;55.05;151463.56;1764159;79;20148;-69
2022/05/19 06:34:42;;;;;;;;;;;;;;;15.22;55.29;151476.56;1761466;79;20204;-69
2022/05/19 06:37:09;;;;;;;;;;;;;;;15.27;55.81;151489.56;1775854;79;21199;-68
2022/05/19 06:39:36;;;;;;;;;;;;;;;15.38;54.58;151516.91;1772855;80;20199;-68
2022/05/19 06:42:04;;;;;;;;;;;;;;;15.43;54.65;151531.25;1759650;80;20193;-70
2022/05/19 06:44:37;;;;;;;;;;;;;;;15.57;54.28;151566.41;1753162;80;20120;-69
2022/05/19 06:47:10;;;;;;;;;;;;;;;15.70;54.32;151598.95;1750985;82;20168;-68
2022/05/19 06:49:33;;;;;;;;;;;;;;;15.83;53.33;151631.52;1758798;80;21919;-69
2022/05/19 06:52:00;;;;;;;;;;;;;;;15.85;53.08;151636.72;1761649;80;20179;-69
2022/05/19 06:54:27;;;;;;;;;;;;;;;15.90;53.34;151648.50;1764496;79;20250;-69
2022/05/19 06:56:56;;;;;;;;;;;;;;;16.01;52.31;151677.13;1772129;79;20175;-68
2022/05/19 06:59:23;;;;;;;;;;;;;;;16.05;52.33;151686.28;1773449;79;20227;-69
2022/05/19 07:01:50;;;;;;;;;;;;;;;16.12;52.60;151704.48;1776117;79;21275;-67
2022/05/19 07:04:16;;;;;;;;;;;;;;;16.27;52.76;151742.31;1780261;79;20535;-69
2022/05/19 07:06:43;;;;;;;;;;;;;;;16.47;51.84;151791.83;1752574;80;20193;-68
2022/05/19 07:09:12;;;;;;;;;;;;;;;16.54;51.20;151810.06;1717075;82;20450;-69
2022/05/19 07:11:39;;;;;;;;;;;;;;;16.55;50.89;151811.33;1736073;82;20471;-68
2022/05/19 07:14:07;;;;;;;;;;;;;;;16.56;50.63;151815.27;1713268;82;21235;-68
2022/05/19 07:16:34;;;;;;;;;;;;;;;16.64;50.21;151834.81;1749645;80;20537;-69
2022/05/19 07:21:47;;;;;;;;;;;;;;;16.64;49.49;151833.50;1750474;80;20487;-68
2022/05/19 07:24:16;;;;;;;;;;;;;;;16.59;49.57;151823.08;1757279;80;20267;-68
2022/05/19 07:26:44;;;;;;;;;;;;;;;16.57;49.47;151817.88;1754454;80;21283;-68
2022/05/19 07:29:10;;;;;;;;;;;;;;;16.67;48.41;151841.31;1732306;80;20159;-68
2022/05/19 07:31:37;;;;;;;;;;;;;;;16.71;48.50;151851.77;1689744;84;20198;-69
2022/05/19 07:34:05;;;;;;;;;;;;;;;16.82;48.76;151880.42;1689714;84;20484;-69
2022/05/19 07:36:34;;;;;;;;;;;;;;;16.84;48.43;151884.34;1698122;84;20207;-68
2022/05/19 07:39:02;;;;;;;;;;;;;;;16.95;48.52;151913.00;1718769;81;21248;-69
2022/05/19 07:41:29;;;;;;;;;;;;;;;17.03;47.80;151932.61;1725666;81;20192;-68
2022/05/19 07:43:57;;;;;;;;;;;;;;;16.97;47.52;151916.94;1727464;82;20226;-65
2022/05/19 07:46:25;;;;;;;;;;;;;;;16.82;47.99;151880.42;1727305;82;21465;-68
2022/05/19 07:48:56;;;;;;;;;;;;;;;16.81;48.31;151877.81;1735637;82;20191;-67
2022/05/19 07:51:29;;;;;;;;;;;;;;;16.88;47.33;151894.77;1709424;83;21140;-68
2022/05/19 07:53:55;;;;;;;;;;;;;;;17.01;46.81;151927.41;1734779;82;20785;-72
2022/05/19 07:56:22;;;;;;;;;;;;;;;17.15;45.45;151963.92;1735853;81;20598;-74
2022/05/19 07:58:50;;;;;;;;;;;;;;;17.17;44.88;151969.13;1719321;81;20172;-72
2022/05/19 08:01:17;;;;;;;;;;;;;;;17.12;44.57;151956.05;1747543;82;20150;-73
2022/05/19 08:03:44;;;;;;;;;;;;;;;17.06;44.77;151940.42;1743407;82;21284;-69
2022/05/19 08:06:11;;;;;;;;;;;;;;;17.07;44.77;151943.03;1734487;81;20464;-73
2022/05/19 08:08:39;;;;;;;;;;;;;;;17.22;44.55;151979.55;1735267;82;20169;-73
2022/05/19 08:11:06;;;;;;;;;;;;;;;17.24;44.79;151984.75;1762243;80;20196;-72
2022/05/19 08:16:19;;;;;;;;;;;;;;;17.28;44.77;151996.50;1750749;81;21155;-68
2022/05/19 08:18:46;;;;;;;;;;;;;;;17.40;43.71;152026.48;1752202;81;20450;-70
2022/05/19 08:21:14;;;;;;;;;;;;;;;17.53;43.84;152057.75;1745082;81;20493;-70
2022/05/19 08:23:43;;;;;;;;;;;;;;;17.61;44.06;152079.94;1746774;80;21034;-68
2022/05/19 08:26:10;;;;;;;;;;;;;;;17.76;43.25;152116.47;1747145;80;20217;-73
2022/05/19 08:28:38;;;;;;;;;;;;;;;17.74;43.06;152112.53;1739411;80;22144;-72
2022/05/19 08:31:12;;;;;;;;;;;;;;;17.68;43.21;152096.89;1745474;82;20170;-71
2022/05/19 08:33:41;;;;;;;;;;;;;;;17.60;42.39;152076.05;1747976;82;32455;-69
2022/05/19 08:36:09;;;;;;;;;;;;;;;17.47;43.20;152044.72;1748613;82;20131;-69
2022/05/19 08:38:38;;;;;;;;;;;;;;;17.46;43.69;152042.12;1742974;80;20231;-71
2022/05/19 08:41:11;;;;;;;;;;;;;;;17.59;42.72;152073.44;1733973;80;21135;-69
2022/05/19 08:43:51;;;;;;;;;;;;;;;17.60;42.83;152076.05;1747385;80;20233;-69
2022/05/19 08:46:20;;;;;;;;;;;;;;;17.63;42.31;152083.86;1748556;82;20198;-74
2022/05/19 08:48:49;;;;;;;;;;;;;;;17.67;42.69;152094.28;1720385;83;20168;-69
2022/05/19 08:51:17;;;;;;;;;;;;;;;17.80;43.04;152125.61;1719816;83;20225;-73
2022/05/19 08:53:44;;;;;;;;;;;;;;;17.95;42.43;152164.70;1727877;80;22669;-70
2022/05/19 08:56:14;;;;;;;;;;;;;;;18.04;41.70;152188.25;1733339;80;20251;-69
2022/05/19 08:58:44;;;;;;;;;;;;;;;18.08;41.24;152196.08;1731217;82;20200;-69
2022/05/19 09:01:21;;;;;;;;;;;;;;;18.09;40.95;152198.69;1731127;80;20130;-69
2022/05/19 09:04:11;;;;;;;;;;;;;;;18.12;40.90;152206.50;1745024;82;20681;-74
2022/05/19 09:09:52;;;;;;;;;;;;;;;18.27;40.49;152245.66;1769103;79;20207;-73
2022/05/19 09:12:20;;;;;;;;;;;;;;;18.29;40.14;152250.86;1756979;79;20146;-72
2022/05/19 09:14:49;;;;;;;;;;;;;;;18.17;40.23;152219.53;1768407;79;20206;-71
2022/05/19 09:17:16;;;;;;;;;;;;;;;18.26;40.62;152241.72;1772782;80;20488;-73
2022/05/19 09:19:52;;;;;;;;;;;;;;;18.43;40.72;152286.09;1773248;80;21139;-72
2022/05/19 09:22:24;;;;;;;;;;;;;;;18.60;40.59;152329.13;1760524;79;20537;-73
2022/05/19 09:24:52;;;;;;;;;;;;;;;18.63;40.43;152334.34;1774019;80;20219;-71
2022/05/19 09:27:19;;;;;;;;;;;;;;;18.56;39.17;152318.70;1760970;80;20504;-71
2022/05/19 09:29:49;;;;;;;;;;;;;;;18.46;39.71;152292.62;1804986;79;20469;-70
2022/05/19 09:32:26;;;;;;;;;;;;;;;18.40;39.85;152276.94;1811632;79;21183;-70
2022/05/19 09:35:06;;;;;;;;;;;;;;;18.24;40.20;152237.83;1777279;79;20202;-69
2022/05/19 09:37:46;;;;;;;;;;;;;;;18.18;39.97;152222.14;1744140;81;20150;-69
2022/05/19 09:40:21;;;;;;;;;;;;;;;18.08;38.75;152196.08;1758230;81;20228;-69
2022/05/19 09:42:51;;;;;;;;;;;;;;;17.91;39.22;152154.28;1762704;79;20209;-70
2022/05/19 09:45:20;;;;;;;;;;;;;;;17.93;39.87;152158.20;1758007;81;21201;-70
2022/05/19 09:47:52;;;;;;;;;;;;;;;18.09;40.12;152198.69;1757169;81;20227;-68
2022/05/19 09:50:25;;;;;;;;;;;;;;;18.18;40.35;152222.14;1757329;80;20484;-69
2022/05/19 09:53:04;;;;;;;;;;;;;;;18.26;40.48;152243.03;1756992;80;20255;-68
2022/05/19 09:55:31;;;;;;;;;;;;;;;18.39;39.99;152274.33;1758997;80;20219;-70
2022/05/19 09:58:02;;;;;;;;;;;;;;;18.41;39.38;152279.53;1764216;81;21740;-71
2022/05/19 10:00:50;;;;;;;;;;;;;;;18.47;39.68;152295.23;1772829;80;20195;-70
2022/05/19 10:03:37;;;;;;;;;;;;;;;18.50;40.05;152303.06;1770447;79;20199;-71
2022/05/19 10:06:10;;;;;;;;;;;;;;;18.41;39.95;152279.53;1762104;80;20291;-70
2022/05/19 10:08:39;;;;;;;;;;;;;;;18.39;40.34;152274.33;1766729;79;20420;-70
2022/05/19 10:11:21;;;;;;;;;;;;;;;18.52;40.37;152308.27;1775962;79;21113;-72
2022/05/19 10:13:52;;;;;;;;;;;;;;;18.74;40.25;152364.36;1781091;79;20199;-71
2022/05/19 10:16:41;;;;;;;;;;;;;;;18.91;39.82;152406.13;1770379;79;20209;-69
2022/05/19 10:19:30;;;;;;;;;;;;;;;18.98;39.51;152423.11;1775783;79;20309;-71
2022/05/19 10:22:04;;;;;;;;;;;;;;;18.93;38.76;152410.06;1780239;80;20172;-70
2022/05/19 10:24:55;;;;;;;;;;;;;;;18.85;39.06;152391.75;1779976;80;21252;-72
2022/05/19 10:33:22;;;;;;;;;;;;;;;18.86;37.87;152393.09;1770839;79;20455;-70
2022/05/19 10:35:52;;;;;;;;;;;;;;;18.82;37.06;152383.94;1779139;80;20473;-71
2022/05/19 10:38:32;;;;;;;;;;;;;;;18.83;36.24;152386.55;1779161;80;21143;-70
2022/05/19 10:41:34;;;;;;;;;;;;;;;18.91;36.36;152406.13;1766041;80;20167;-71
2022/05/19 10:44:22;;;;;;;;;;;;;;;18.89;36.75;152402.19;1789992;80;20177;-69
2022/05/19 10:47:13;;;;;;;;;;;;;;;18.85;36.37;152391.75;1790128;79;20500;-71
2022/05/19 10:49:53;;;;;;;;;;;;;;;18.95;36.83;152415.28;1789000;79;20203;-69
2022/05/19 10:52:29;;;;;;;;;;;;;;;18.96;36.31;152419.17;1737216;80;21224;-71
2022/05/19 10:55:15;;;;;;;;;;;;;;;18.95;36.95;152415.28;1789968;80;20598;-68
2022/05/19 10:57:57;;;;;;;;;;;;;;;19.06;37.02;152442.75;1789385;80;20246;-70
2022/05/19 11:00:42;;;;;;;;;;;;;;;19.12;37.25;152459.72;1736500;80;20234;-70
2022/05/19 11:03:23;;;;;;;;;;;;;;;19.16;37.18;152470.16;1738803;80;20273;-69
2022/05/19 11:06:31;;;;;;;;;;;;;;;19.21;35.47;152480.59;1789119;80;21057;-68
2022/05/19 11:09:16;;;;;;;;;;;;;;;19.22;34.52;152483.19;1782439;80;20168;-70
2022/05/19 11:12:03;;;;;;;;;;;;;;;19.13;34.51;152462.33;1782953;80;20179;-70
2022/05/19 11:14:50;;;;;;;;;;;;;;;19.07;34.81;152446.63;1782524;80;20215;-69
2022/05/19 11:17:26;;;;;;;;;;;;;;;19.05;34.86;152441.41;1783078;80;20171;-68
2022/05/19 11:19:58;;;;;;;;;;;;;;;19.05;34.98;152441.41;1784898;79;21121;-69
2022/05/19 11:22:26;;;;;;;;;;;;;;;19.10;34.23;152454.45;1782707;80;20207;-68
2022/05/19 11:27:48;;;;;;;;;;;;;;;19.05;34.41;152441.41;1769477;79;20220;-69
2022/05/19 11:30:18;;;;;;;;;;;;;;;19.10;34.34;152454.45;1770707;80;20249;-70
2022/05/19 11:32:46;;;;;;;;;;;;;;;19.13;34.69;152462.33;1782850;78;21134;-69
2022/05/19 11:35:31;;;;;;;;;;;;;;;19.18;35.04;152475.38;1749048;80;20262;-68
2022/05/19 11:38:15;;;;;;;;;;;;;;;19.24;34.94;152488.41;1783591;79;20456;-69
2022/05/19 11:40:44;;;;;;;;;;;;;;;19.34;35.35;152514.50;1794262;79;20193;-68
2022/05/19 11:43:39;;;;;;;;;;;;;;;19.50;34.58;152553.69;1776002;79;20222;-70
2022/05/19 11:46:13;;;;;;;;;;;;;;;19.59;34.36;152577.20;1781645;78;21234;-69
2022/05/19 11:57:37;;;;;;;;;;;;;;;19.57;34.35;152573.27;1743489;82;20470;-69
2022/05/19 12:00:07;;;;;;;;;;;;;;;19.51;34.01;152556.28;1776119;79;20435;-69
2022/05/19 12:02:48;;;;;;;;;;;;;;;19.47;34.18;152548.47;1743588;80;20150;-70
2022/05/19 12:05:23;;;;;;;;;;;;;;;19.47;34.21;152547.19;1755976;81;20756;-69
2022/05/19 12:07:53;;;;;;;;;;;;;;;19.49;34.35;152552.41;1754677;80;20206;-69
2022/05/19 12:10:33;;;;;;;;;;;;;;;19.46;34.64;152544.56;1748426;80;20446;-69
2022/05/19 12:13:00;;;;;;;;;;;;;;;19.42;35.06;152534.09;1743125;80;21224;-70
2022/05/19 12:15:33;;;;;;;;;;;;;;;19.43;35.04;152536.69;1744468;80;20220;-70
2022/05/19 12:18:03;;;;;;;;;;;;;;;19.42;35.05;152535.42;1741437;80;20139;-69
2022/05/19 12:20:55;;;;;;;;;;;;;;;19.45;35.13;152543.25;1732163;82;20214;-70
2022/05/19 12:23:30;;;;;;;;;;;;;;;19.52;34.66;152560.22;1774322;80;20173;-67
2022/05/19 12:26:03;;;;;;;;;;;;;;;19.52;34.51;152558.91;1786497;80;22832;-70
2022/05/19 12:28:40;;;;;;;;;;;;;;;19.47;34.64;152547.19;1768341;79;20218;-69
2022/05/19 12:34:13;;;;;;;;;;;;;;;19.52;34.59;152560.22;1773018;80;20190;-69
2022/05/19 12:36:50;;;;;;;;;;;;;;;19.72;33.93;152611.12;1773900;79;20505;-70
2022/05/19 12:39:26;;;;;;;;;;;;;;;19.85;33.90;152642.48;1760171;80;21135;-71
2022/05/19 12:41:55;;;;;;;;;;;;;;;19.96;34.24;152669.97;1774278;80;20467;-69
2022/05/19 12:44:45;;;;;;;;;;;;;;;20.13;33.97;152714.37;1771093;80;20319;-70
2022/05/19 12:47:24;;;;;;;;;;;;;;;20.26;33.83;152747.03;1746696;81;20515;-67
2022/05/19 12:50:13;;;;;;;;;;;;;;;20.41;33.01;152783.58;1810074;77;20201;-70
2022/05/19 12:52:44;;;;;;;;;;;;;;;20.46;32.88;152797.95;1738638;79;20160;-70
2022/05/19 12:55:27;;;;;;;;;;;;;;;20.52;32.67;152812.34;1743024;79;20452;-68
2022/05/19 12:57:56;;;;;;;;;;;;;;;20.62;32.45;152837.17;1777420;80;20145;-69
2022/05/19 13:00:24;;;;;;;;;;;;;;;20.63;32.19;152838.44;1751589;80;20265;-69
2022/05/19 13:02:57;;;;;;;;;;;;;;;20.58;32.57;152826.72;1738545;80;20208;-70
2022/05/19 13:05:30;;;;;;;;;;;;;;;20.57;32.47;152824.11;1732582;80;21170;-70
2022/05/19 13:08:12;;;;;;;;;;;;;;;20.56;32.57;152822.78;1752835;80;20439;-68
2022/05/19 13:10:41;;;;;;;;;;;;;;;20.64;32.43;152841.06;1744336;80;20269;-70
2022/05/19 13:13:29;;;;;;;;;;;;;;;20.65;32.48;152845.00;1728354;81;20183;-69
2022/05/19 13:15:57;;;;;;;;;;;;;;;20.63;32.17;152838.44;1727926;80;20147;-69
2022/05/19 13:18:29;;;;;;;;;;;;;;;20.61;32.25;152835.84;1732894;80;21214;-68
2022/05/19 13:21:04;;;;;;;;;;;;;;;20.68;32.21;152851.55;1727759;82;21120;-69
2022/05/19 13:23:31;;;;;;;;;;;;;;;20.74;31.62;152867.22;1741551;82;20503;-69
2022/05/19 13:26:01;;;;;;;;;;;;;;;20.66;31.75;152847.61;1741641;81;20170;-69
2022/05/19 13:31:25;;;;;;;;;;;;;;;20.57;32.52;152824.11;1738335;80;21144;-70
2022/05/19 13:33:57;;;;;;;;;;;;;;;20.49;32.72;152804.50;1744890;82;20491;-69